createdAt,value
2023-03-25T00:03:46.986Z,14.60
2023-03-25T00:07:14.215Z,13.70
2023-03-25T00:10:45.106Z,11.20
2023-03-25T00:14:17.548Z,11.30
2023-03-25T00:17:47.241Z,14.90
2023-03-25T00:21:15.254Z,22.40
2023-03-25T00:24:43.416Z,16.60
2023-03-25T00:28:15.561Z,13.50
2023-03-25T00:31:43.717Z,12.70
2023-03-25T00:35:21.681Z,12.50
2023-03-25T00:38:51.743Z,19.30
2023-03-25T00:42:27.605Z,33.50
2023-03-25T00:45:58.549Z,25.10
2023-03-25T00:49:25.709Z,24.30
2023-03-25T00:52:53.672Z,17.50
2023-03-25T00:56:21.042Z,20.50
2023-03-25T00:59:49.899Z,15.90
2023-03-25T01:03:19.628Z,13.00
2023-03-25T01:06:52.239Z,15.80
2023-03-25T01:10:19.589Z,11.60
2023-03-25T01:13:46.994Z,16.90
2023-03-25T01:17:15.170Z,13.10
2023-03-25T01:20:44.186Z,16.10
2023-03-25T01:24:14.331Z,15.70
2023-03-25T01:27:44.640Z,19.70
2023-03-25T01:31:18.231Z,20.40
2023-03-25T01:34:48.561Z,17.30
2023-03-25T01:38:17.805Z,16.10
2023-03-25T01:41:55.800Z,17.50
2023-03-25T01:45:37.723Z,23.00
2023-03-25T01:49:11.618Z,18.60
2023-03-25T01:52:52.560Z,16.70
2023-03-25T01:56:26.099Z,13.40
2023-03-25T02:03:24.094Z,14.30
2023-03-25T02:06:55.058Z,12.20
2023-03-25T02:10:23.472Z,13.60
2023-03-25T02:13:52.978Z,14.60
2023-03-25T02:17:29.992Z,13.30
2023-03-25T02:21:27.041Z,16.50
2023-03-25T02:25:21.128Z,11.60
2023-03-25T02:28:56.854Z,14.40
2023-03-25T02:32:44.620Z,19.10
2023-03-25T02:36:41.715Z,23.40
2023-03-25T02:40:12.116Z,17.40
2023-03-25T02:43:45.914Z,14.90
2023-03-25T02:47:18.824Z,13.90
2023-03-25T02:50:50.430Z,16.90
2023-03-25T02:54:20.960Z,16.40
2023-03-25T02:57:53.300Z,16.10
2023-03-25T03:01:23.193Z,14.50
2023-03-25T03:04:55.337Z,14.10
2023-03-25T03:08:37.488Z,12.60
2023-03-25T03:12:18.085Z,18.80
2023-03-25T03:15:55.555Z,14.90
2023-03-25T03:19:38.331Z,13.00
2023-03-25T03:23:15.160Z,11.70
2023-03-25T03:26:49.998Z,14.20
2023-03-25T03:30:27.625Z,15.70
2023-03-25T03:33:58.810Z,16.30
2023-03-25T03:37:31.710Z,20.30
2023-03-25T03:41:04.860Z,16.10
2023-03-25T03:44:36.238Z,13.60
2023-03-25T03:48:07.558Z,14.90
2023-03-25T03:51:38.535Z,12.80
2023-03-25T03:55:11.007Z,16.20
2023-03-25T03:58:43.279Z,16.60
2023-03-25T04:02:19.371Z,16.30
2023-03-25T04:05:56.214Z,17.10
2023-03-25T04:09:29.406Z,18.00
2023-03-25T04:13:00.000Z,16.20
2023-03-25T04:16:28.832Z,17.50
2023-03-25T04:19:56.018Z,18.60
2023-03-25T04:23:23.166Z,17.90
2023-03-25T04:26:50.080Z,15.40
2023-03-25T04:30:19.372Z,17.40
2023-03-25T04:33:50.996Z,17.90
2023-03-25T04:37:17.539Z,17.40
2023-03-25T04:40:46.995Z,15.40
2023-03-25T04:44:14.340Z,22.40
2023-03-25T04:47:45.117Z,15.00
2023-03-25T04:51:14.226Z,16.50
2023-03-25T04:54:41.295Z,13.40
2023-03-25T04:58:11.602Z,14.00
2023-03-25T05:01:42.550Z,16.90
2023-03-25T05:05:10.734Z,16.70
2023-03-25T05:08:38.495Z,16.70
2023-03-25T05:12:05.088Z,18.30
2023-03-25T05:15:35.814Z,14.90
2023-03-25T05:19:03.820Z,16.90
2023-03-25T05:22:31.162Z,20.30
2023-03-25T05:25:58.037Z,16.20
2023-03-25T05:29:24.536Z,18.70
2023-03-25T05:32:56.722Z,19.30
2023-03-25T05:36:25.265Z,21.50
2023-03-25T05:39:52.882Z,16.80
2023-03-25T05:43:23.229Z,18.40
2023-03-25T05:46:52.786Z,19.40
2023-03-25T05:50:20.415Z,20.00
2023-03-25T05:53:50.208Z,15.30
2023-03-25T05:57:17.091Z,16.40
2023-03-25T06:00:44.442Z,19.20
2023-03-25T06:04:13.321Z,20.50
2023-03-25T06:07:43.046Z,19.20
2023-03-25T06:11:10.639Z,26.60
2023-03-25T06:14:37.931Z,29.50
2023-03-25T06:18:05.882Z,25.60
2023-03-25T06:21:35.202Z,25.80
2023-03-25T06:25:04.141Z,18.10
2023-03-25T06:28:31.380Z,14.50
2023-03-25T06:31:59.852Z,12.90
2023-03-25T06:35:26.627Z,14.30
2023-03-25T06:38:53.943Z,10.40
2023-03-25T06:42:22.076Z,12.60
2023-03-25T06:45:59.911Z,13.40
2023-03-25T06:49:51.990Z,13.20
2023-03-25T06:53:18.703Z,14.50
2023-03-25T06:56:45.649Z,17.20
2023-03-25T07:00:15.344Z,13.10
2023-03-25T07:03:42.799Z,17.10
2023-03-25T07:07:09.805Z,16.30
2023-03-25T07:10:37.904Z,15.60
2023-03-25T07:14:06.087Z,11.50
2023-03-25T07:17:32.958Z,16.50
2023-03-25T07:21:00.273Z,13.50
2023-03-25T07:24:26.968Z,13.70
2023-03-25T07:27:53.668Z,14.00
2023-03-25T07:31:21.157Z,15.20
2023-03-25T07:34:48.479Z,13.90
2023-03-25T07:38:15.565Z,11.30
2023-03-25T07:41:43.537Z,12.50
2023-03-25T07:45:20.874Z,8.30
2023-03-25T07:48:48.705Z,13.80
2023-03-25T07:52:15.284Z,10.60
2023-03-25T07:55:42.556Z,9.70
2023-03-25T07:59:09.875Z,11.50
2023-03-25T08:02:36.925Z,9.30
2023-03-25T08:06:04.952Z,10.90
2023-03-25T08:09:32.217Z,14.60
2023-03-25T08:12:59.766Z,12.60
2023-03-25T08:16:26.872Z,12.60
2023-03-25T08:19:58.301Z,9.60
2023-03-25T08:23:27.227Z,9.50
2023-03-25T08:26:56.543Z,11.30
2023-03-25T08:30:26.137Z,8.50
2023-03-25T08:34:05.489Z,9.60
2023-03-25T08:37:40.080Z,10.40
2023-03-25T08:41:08.582Z,9.90
2023-03-25T08:44:37.246Z,15.70
2023-03-25T08:48:04.677Z,13.80
2023-03-25T08:51:35.510Z,12.50
2023-03-25T08:55:02.985Z,9.00
2023-03-25T08:58:33.854Z,11.50
2023-03-25T09:02:02.772Z,9.00
2023-03-25T09:05:30.279Z,10.20
2023-03-25T09:08:57.512Z,9.40
2023-03-25T09:12:24.806Z,10.80
2023-03-25T09:15:53.283Z,10.40
2023-03-25T09:19:21.628Z,11.50
2023-03-25T09:22:49.412Z,7.90
2023-03-25T09:26:16.364Z,7.20
2023-03-25T09:29:43.113Z,9.50
2023-03-25T09:33:16.506Z,10.90
2023-03-25T09:36:45.983Z,8.70
2023-03-25T09:40:16.669Z,11.30
2023-03-25T09:43:59.860Z,9.80
2023-03-25T09:47:28.568Z,6.70
2023-03-25T09:50:55.071Z,10.90
2023-03-25T09:54:27.176Z,11.30
2023-03-25T09:58:03.923Z,12.70
2023-03-25T10:01:41.895Z,10.00
2023-03-25T10:05:49.316Z,9.90
2023-03-25T10:09:40.232Z,8.50
2023-03-25T10:13:15.231Z,12.30
2023-03-25T10:16:56.512Z,9.50
2023-03-25T10:20:31.031Z,7.50
2023-03-25T10:24:07.701Z,10.00
2023-03-25T10:27:40.020Z,11.50
2023-03-25T10:31:15.662Z,7.80
2023-03-25T10:34:47.834Z,10.00
2023-03-25T10:38:20.989Z,10.30
2023-03-25T10:45:18.411Z,3.80
2023-03-25T10:48:47.467Z,4.00
2023-03-25T10:52:16.321Z,6.80
2023-03-25T10:55:46.455Z,3.80
2023-03-25T10:59:21.476Z,3.60
2023-03-25T11:02:52.037Z,5.80
2023-03-25T11:06:26.969Z,6.90
2023-03-25T11:09:54.264Z,3.30
2023-03-25T11:13:58.573Z,5.80
2023-03-25T11:17:43.506Z,4.50
2023-03-25T11:21:13.973Z,3.70
2023-03-25T11:24:46.138Z,7.90
2023-03-25T11:28:17.946Z,4.40
2023-03-25T11:31:57.963Z,5.10
2023-03-25T11:35:31.964Z,4.70
2023-03-25T11:39:13.971Z,3.30
2023-03-25T11:42:49.903Z,7.10
2023-03-25T11:46:20.641Z,6.40
2023-03-25T11:49:51.436Z,4.80
2023-03-25T11:53:20.211Z,6.80
2023-03-25T11:56:50.267Z,7.40
2023-03-25T12:00:38.489Z,6.80
2023-03-25T12:04:18.760Z,3.70
2023-03-25T12:07:47.665Z,3.80
2023-03-25T12:11:19.942Z,7.00
2023-03-25T12:14:57.770Z,5.10
2023-03-25T12:18:42.024Z,5.20
2023-03-25T12:22:19.353Z,2.30
2023-03-25T12:25:55.680Z,3.50
2023-03-25T12:29:37.791Z,4.10
2023-03-25T12:33:14.671Z,4.20
2023-03-25T12:36:51.710Z,4.90
2023-03-25T12:40:46.569Z,5.80
2023-03-25T12:44:31.145Z,3.80
2023-03-25T12:48:03.554Z,8.10
2023-03-25T12:51:43.595Z,3.00
2023-03-25T12:55:32.901Z,2.60
2023-03-25T12:59:21.760Z,2.40
2023-03-25T13:03:18.083Z,1.40
2023-03-25T13:06:49.371Z,0.90
2023-03-25T13:10:21.065Z,1.70
2023-03-25T13:13:51.026Z,2.50
2023-03-25T13:17:26.579Z,2.20
2023-03-25T13:21:11.605Z,3.40
2023-03-25T13:24:45.972Z,3.70
2023-03-25T13:28:19.066Z,4.30
2023-03-25T13:31:48.891Z,6.00
2023-03-25T13:35:20.903Z,7.00
2023-03-25T13:38:55.733Z,9.50
2023-03-25T13:42:25.961Z,8.10
2023-03-25T13:45:58.168Z,5.60
2023-03-25T13:49:30.545Z,6.30
2023-03-25T13:53:04.701Z,5.40
2023-03-25T13:56:59.134Z,3.40
2023-03-25T14:00:53.091Z,3.50
2023-03-25T14:05:00.674Z,5.10
2023-03-25T14:08:49.762Z,5.70
2023-03-25T14:12:19.943Z,6.70
2023-03-25T14:15:53.965Z,4.20
2023-03-25T14:19:32.081Z,5.90
2023-03-25T14:23:04.601Z,3.60
2023-03-25T14:26:33.344Z,2.40
2023-03-25T14:30:03.106Z,5.60
2023-03-25T14:33:51.047Z,5.30
2023-03-25T14:37:36.211Z,4.10
2023-03-25T14:41:04.039Z,6.10
2023-03-25T14:44:33.186Z,5.30
2023-03-25T14:48:03.493Z,5.50
2023-03-25T14:51:51.758Z,7.50
2023-03-25T14:55:22.845Z,5.90
2023-03-25T14:58:55.051Z,8.10
2023-03-25T15:02:28.988Z,6.20
2023-03-25T15:06:01.102Z,5.90
2023-03-25T15:09:30.115Z,10.20
2023-03-25T15:13:02.240Z,12.10
2023-03-25T15:16:37.165Z,7.80
2023-03-25T15:20:31.953Z,7.10
2023-03-25T15:27:56.079Z,7.80
2023-03-25T15:31:41.245Z,8.40
2023-03-25T15:35:35.131Z,9.40
2023-03-25T15:39:17.601Z,6.00
2023-03-25T15:43:01.737Z,7.20
2023-03-25T15:47:22.581Z,3.30
2023-03-25T15:51:07.004Z,5.20
2023-03-25T15:54:42.174Z,3.50
2023-03-25T15:58:23.409Z,3.60
2023-03-25T16:01:53.814Z,2.80
2023-03-25T16:05:23.280Z,3.90
2023-03-25T16:08:52.196Z,3.60
2023-03-25T16:12:24.783Z,3.30
2023-03-25T16:15:53.418Z,4.00
2023-03-25T16:19:24.168Z,7.50
2023-03-25T16:22:54.343Z,5.90
2023-03-25T16:26:38.453Z,4.00
2023-03-25T16:30:22.041Z,8.30
2023-03-25T16:33:49.035Z,4.40
2023-03-25T16:37:18.142Z,5.60
2023-03-25T16:40:47.098Z,6.40
2023-03-25T16:44:19.371Z,8.20
2023-03-25T16:47:49.250Z,4.30
2023-03-25T16:51:18.916Z,4.10
2023-03-25T16:55:09.771Z,6.50
2023-03-25T16:58:39.747Z,7.90
2023-03-25T17:02:26.936Z,5.20
2023-03-25T17:06:03.411Z,10.20
2023-03-25T17:09:35.406Z,8.10
2023-03-25T17:13:09.398Z,10.50
2023-03-25T17:16:38.311Z,10.80
2023-03-25T17:20:09.583Z,8.20
2023-03-25T17:23:45.247Z,8.30
2023-03-25T17:27:26.271Z,8.60
2023-03-25T17:30:54.530Z,9.40
2023-03-25T17:34:24.747Z,6.20
2023-03-25T17:37:52.713Z,9.90
2023-03-25T17:41:21.244Z,8.00
2023-03-25T17:44:48.620Z,9.30
2023-03-25T17:48:18.343Z,8.80
2023-03-25T17:51:45.905Z,12.50
2023-03-25T17:55:13.585Z,12.70
2023-03-25T17:58:40.254Z,10.30
2023-03-25T18:02:13.627Z,10.40
2023-03-25T18:05:40.434Z,8.70
2023-03-25T18:09:09.237Z,10.10
2023-03-25T18:12:36.144Z,21.10
2023-03-25T18:16:03.012Z,25.20
2023-03-25T18:19:32.289Z,12.50
2023-03-25T18:22:59.848Z,9.10
2023-03-25T18:26:28.664Z,7.90
2023-03-25T18:29:55.284Z,16.20
2023-03-25T18:33:22.362Z,13.60
2023-03-25T18:36:49.738Z,9.10
2023-03-25T18:40:24.558Z,9.50
2023-03-25T18:43:51.596Z,9.40
2023-03-25T18:47:18.773Z,15.50
2023-03-25T18:50:52.675Z,17.70
2023-03-25T18:54:20.629Z,18.60
2023-03-25T18:57:47.349Z,12.10
2023-03-25T19:01:18.894Z,12.50
2023-03-25T19:04:59.504Z,18.40
2023-03-25T19:08:28.970Z,7.90
2023-03-25T19:11:55.578Z,7.90
2023-03-25T19:15:48.749Z,6.40
2023-03-25T19:19:15.656Z,11.20
2023-03-25T19:22:43.559Z,6.50
2023-03-25T19:26:10.235Z,8.90
2023-03-25T19:29:38.215Z,9.50
2023-03-25T19:33:05.248Z,7.80
2023-03-25T19:36:40.193Z,8.80
2023-03-25T19:40:17.546Z,8.20
2023-03-25T19:43:45.302Z,6.00
2023-03-25T19:47:13.912Z,7.90
2023-03-25T19:50:44.735Z,8.80
2023-03-25T19:54:15.784Z,10.40
2023-03-25T19:57:45.353Z,11.50
2023-03-25T20:01:14.039Z,16.10
2023-03-25T20:04:50.354Z,12.50
2023-03-25T20:08:22.411Z,7.60
2023-03-25T20:11:49.649Z,8.10
2023-03-25T20:15:18.090Z,7.30
2023-03-25T20:18:48.860Z,6.90
2023-03-25T20:22:24.890Z,11.90
2023-03-25T20:25:54.134Z,12.60
2023-03-25T20:29:22.665Z,10.30
2023-03-25T20:32:50.545Z,9.20
2023-03-25T20:36:22.587Z,11.50
2023-03-25T20:39:51.872Z,8.90
2023-03-25T20:43:20.432Z,12.60
2023-03-25T20:46:49.957Z,12.50
2023-03-25T20:50:21.142Z,9.30
2023-03-25T20:53:50.644Z,11.40
2023-03-25T20:57:18.028Z,13.30
2023-03-25T21:00:47.291Z,12.80
2023-03-25T21:04:15.812Z,11.80
2023-03-25T21:07:42.902Z,10.00
2023-03-25T21:11:10.538Z,9.70
2023-03-25T21:14:41.727Z,8.90
2023-03-25T21:18:11.911Z,7.90
2023-03-25T21:21:42.146Z,10.20
2023-03-25T21:25:11.165Z,7.90
2023-03-25T21:28:42.961Z,10.00
2023-03-25T21:32:14.356Z,8.30
2023-03-25T21:35:41.869Z,13.70
2023-03-25T21:39:20.985Z,19.70
2023-03-25T21:42:48.993Z,15.10
2023-03-25T21:46:18.428Z,15.60
2023-03-25T21:49:49.557Z,16.60
2023-03-25T21:53:18.961Z,15.30
2023-03-25T21:56:47.254Z,14.80
2023-03-25T22:00:20.243Z,13.30
2023-03-25T22:03:50.237Z,13.60
2023-03-25T22:07:20.945Z,12.60
2023-03-25T22:10:48.210Z,14.80
2023-03-25T22:14:15.039Z,13.40
2023-03-25T22:17:43.805Z,11.90
2023-03-25T22:21:15.052Z,11.40
2023-03-25T22:24:45.077Z,7.70
2023-03-25T22:28:14.222Z,15.00
2023-03-25T22:31:45.179Z,7.20
2023-03-25T22:35:17.563Z,7.70
2023-03-25T22:38:46.339Z,8.80
2023-03-25T22:42:15.108Z,7.80
2023-03-25T22:45:43.147Z,8.20
2023-03-25T22:49:11.558Z,7.50
2023-03-25T22:52:40.850Z,9.90
2023-03-25T22:56:13.341Z,9.10
2023-03-25T22:59:41.324Z,6.90
2023-03-25T23:03:11.475Z,7.60
2023-03-25T23:06:39.094Z,13.30
2023-03-25T23:10:10.158Z,8.30
2023-03-25T23:13:37.655Z,10.60
2023-03-25T23:17:04.981Z,8.10
2023-03-25T23:20:31.990Z,10.90
2023-03-25T23:24:01.807Z,6.70
2023-03-25T23:27:34.121Z,7.90
2023-03-25T23:31:03.905Z,6.50
2023-03-25T23:34:32.081Z,7.20
2023-03-25T23:37:59.746Z,5.80
2023-03-25T23:41:27.410Z,5.30
2023-03-25T23:44:54.942Z,10.40
2023-03-25T23:48:23.053Z,8.60
2023-03-25T23:51:51.409Z,8.00
2023-03-25T23:55:18.801Z,10.70
2023-03-25T23:58:45.550Z,10.10
